sensor_id;sensor_type;location;lat;lon;timestamp;pressure;altitude;pressure_sealevel;temperature;humidity
61136;BME280;47021;51.340;12.432;2023-03-03T00:00:37;100828.34;;;2.86;76.33
61136;BME280;47021;51.340;12.432;2023-03-03T00:03:04;100820.88;;;3.42;75.11
61136;BME280;47021;51.340;12.432;2023-03-03T00:05:33;100810.50;;;3.83;73.50
61136;BME280;47021;51.340;12.432;2023-03-03T00:10:54;100819.38;;;3.57;73.29
61136;BME280;47021;51.340;12.432;2023-03-03T00:13:26;100819.25;;;3.20;74.84
61136;BME280;47021;51.340;12.432;2023-03-03T00:18:44;100818.38;;;2.57;76.42
61136;BME280;47021;51.340;12.432;2023-03-03T00:26:34;100815.38;;;2.46;77.78
61136;BME280;47021;51.340;12.432;2023-03-03T00:29:17;100816.09;;;2.71;76.54
61136;BME280;47021;51.340;12.432;2023-03-03T00:31:48;100815.44;;;3.28;75.10
61136;BME280;47021;51.340;12.432;2023-03-03T00:36:45;100814.13;;;2.98;76.07
61136;BME280;47021;51.340;12.432;2023-03-03T00:42:23;100808.47;;;2.25;77.30
61136;BME280;47021;51.340;12.432;2023-03-03T00:44:58;100811.81;;;2.27;77.39
61136;BME280;47021;51.340;12.432;2023-03-03T00:47:28;100820.41;;;2.49;77.40
61136;BME280;47021;51.340;12.432;2023-03-03T00:52:38;100833.47;;;2.66;76.80
61136;BME280;47021;51.340;12.432;2023-03-03T01:03:34;100824.44;;;2.56;77.95
61136;BME280;47021;51.340;12.432;2023-03-03T01:05:59;100821.03;;;2.56;76.20
61136;BME280;47021;51.340;12.432;2023-03-03T01:11:09;100816.91;;;2.94;75.55
61136;BME280;47021;51.340;12.432;2023-03-03T01:13:36;100816.13;;;2.92;75.04
61136;BME280;47021;51.340;12.432;2023-03-03T01:18:47;100819.63;;;2.91;74.93
61136;BME280;47021;51.340;12.432;2023-03-03T01:21:13;100816.13;;;3.12;73.78
61136;BME280;47021;51.340;12.432;2023-03-03T01:23:39;100808.25;;;3.16;73.82
61136;BME280;47021;51.340;12.432;2023-03-03T01:28:49;100799.88;;;2.90;73.59
61136;BME280;47021;51.340;12.432;2023-03-03T01:31:27;100814.94;;;2.78;74.34
61136;BME280;47021;51.340;12.432;2023-03-03T01:34:06;100810.88;;;3.15;73.76
61136;BME280;47021;51.340;12.432;2023-03-03T01:36:49;100804.56;;;3.22;73.53
61136;BME280;47021;51.340;12.432;2023-03-03T01:39:21;100800.72;;;3.30;73.08
61136;BME280;47021;51.340;12.432;2023-03-03T01:41:46;100794.94;;;3.84;71.83
61136;BME280;47021;51.340;12.432;2023-03-03T01:44:24;100791.72;;;3.79;71.56
61136;BME280;47021;51.340;12.432;2023-03-03T01:54:42;100797.13;;;2.94;75.15
61136;BME280;47021;51.340;12.432;2023-03-03T01:57:16;100803.47;;;3.27;73.46
61136;BME280;47021;51.340;12.432;2023-03-03T02:00:03;100807.19;;;2.58;75.33
61136;BME280;47021;51.340;12.432;2023-03-03T02:02:35;100803.19;;;2.71;74.73
61136;BME280;47021;51.340;12.432;2023-03-03T02:07:52;100808.41;;;2.48;76.75
61136;BME280;47021;51.340;12.432;2023-03-03T02:10:23;100811.41;;;2.59;75.62
61136;BME280;47021;51.340;12.432;2023-03-03T02:13:01;100816.97;;;2.27;76.08
61136;BME280;47021;51.340;12.432;2023-03-03T02:15:35;100818.16;;;2.19;76.99
61136;BME280;47021;51.340;12.432;2023-03-03T02:18:03;100811.28;;;2.41;75.96
61136;BME280;47021;51.340;12.432;2023-03-03T02:31:10;100822.59;;;1.92;76.44
61136;BME280;47021;51.340;12.432;2023-03-03T02:33:42;100825.38;;;1.86;76.77
61136;BME280;47021;51.340;12.432;2023-03-03T02:41:28;100822.63;;;2.13;76.04
61136;BME280;47021;51.340;12.432;2023-03-03T02:43:58;100818.97;;;2.42;75.16
61136;BME280;47021;51.340;12.432;2023-03-03T02:46:24;100815.63;;;2.40;75.72
61136;BME280;47021;51.340;12.432;2023-03-03T02:48:51;100823.47;;;2.14;75.28
61136;BME280;47021;51.340;12.432;2023-03-03T02:56:50;100816.44;;;2.19;76.16
61136;BME280;47021;51.340;12.432;2023-03-03T02:59:24;100811.78;;;2.50;75.34
61136;BME280;47021;51.340;12.432;2023-03-03T03:01:55;100805.06;;;2.46;74.43
61136;BME280;47021;51.340;12.432;2023-03-03T03:04:40;100793.69;;;2.52;74.31
61136;BME280;47021;51.340;12.432;2023-03-03T03:07:05;100794.31;;;2.57;73.97
61136;BME280;47021;51.340;12.432;2023-03-03T03:12:14;100781.56;;;2.32;74.71
61136;BME280;47021;51.340;12.432;2023-03-03T03:14:44;100774.28;;;3.05;72.84
61136;BME280;47021;51.340;12.432;2023-03-03T03:17:11;100768.16;;;3.48;71.70
61136;BME280;47021;51.340;12.432;2023-03-03T03:19:54;100774.50;;;3.41;71.21
61136;BME280;47021;51.340;12.432;2023-03-03T03:22:38;100778.38;;;2.69;73.02
61136;BME280;47021;51.340;12.432;2023-03-03T03:25:19;100786.94;;;2.04;76.00
61136;BME280;47021;51.340;12.432;2023-03-03T03:27:45;100795.81;;;2.19;74.70
61136;BME280;47021;51.340;12.432;2023-03-03T03:30:35;100805.44;;;2.37;75.05
61136;BME280;47021;51.340;12.432;2023-03-03T03:38:37;100821.31;;;2.03;76.48
61136;BME280;47021;51.340;12.432;2023-03-03T03:41:10;100821.50;;;1.99;75.81
61136;BME280;47021;51.340;12.432;2023-03-03T03:43:37;100825.06;;;1.95;76.32
61136;BME280;47021;51.340;12.432;2023-03-03T03:48:48;100818.06;;;2.22;74.82
61136;BME280;47021;51.340;12.432;2023-03-03T03:51:26;100808.06;;;2.36;74.92
61136;BME280;47021;51.340;12.432;2023-03-03T03:54:11;100812.91;;;2.65;73.67
61136;BME280;47021;51.340;12.432;2023-03-03T03:56:55;100807.72;;;2.86;73.24
61136;BME280;47021;51.340;12.432;2023-03-03T04:02:10;100816.59;;;2.14;75.98
61136;BME280;47021;51.340;12.432;2023-03-03T04:04:41;100819.69;;;2.01;76.21
61136;BME280;47021;51.340;12.432;2023-03-03T04:07:17;100828.88;;;2.08;76.08
61136;BME280;47021;51.340;12.432;2023-03-03T04:09:54;100824.25;;;2.16;76.39
61136;BME280;47021;51.340;12.432;2023-03-03T04:14:49;100832.41;;;2.05;76.33
61136;BME280;47021;51.340;12.432;2023-03-03T04:20:12;100824.91;;;2.44;75.02
61136;BME280;47021;51.340;12.432;2023-03-03T04:22:47;100825.31;;;2.55;74.45
61136;BME280;47021;51.340;12.432;2023-03-03T04:25:15;100841.75;;;2.74;73.68
61136;BME280;47021;51.340;12.432;2023-03-03T04:27:51;100830.13;;;2.43;74.50
61136;BME280;47021;51.340;12.432;2023-03-03T04:33:01;100836.94;;;2.22;75.72
61136;BME280;47021;51.340;12.432;2023-03-03T04:35:32;100838.38;;;2.29;75.30
61136;BME280;47021;51.340;12.432;2023-03-03T04:37:58;100836.63;;;2.30;74.75
61136;BME280;47021;51.340;12.432;2023-03-03T04:40:23;100840.66;;;1.90;76.06
61136;BME280;47021;51.340;12.432;2023-03-03T04:42:53;100844.06;;;2.37;75.04
61136;BME280;47021;51.340;12.432;2023-03-03T04:45:36;100842.34;;;2.38;75.34
61136;BME280;47021;51.340;12.432;2023-03-03T04:48:11;100845.53;;;2.21;75.56
61136;BME280;47021;51.340;12.432;2023-03-03T04:50:37;100841.28;;;2.20;75.63
61136;BME280;47021;51.340;12.432;2023-03-03T04:53:16;100834.28;;;2.24;75.96
61136;BME280;47021;51.340;12.432;2023-03-03T04:55:58;100828.19;;;2.48;74.74
61136;BME280;47021;51.340;12.432;2023-03-03T04:58:26;100823.91;;;2.25;74.83
61136;BME280;47021;51.340;12.432;2023-03-03T05:00:56;100823.31;;;2.19;75.73
61136;BME280;47021;51.340;12.432;2023-03-03T05:03:21;100826.84;;;2.16;75.53
61136;BME280;47021;51.340;12.432;2023-03-03T05:05:46;100843.97;;;1.94;76.43
61136;BME280;47021;51.340;12.432;2023-03-03T05:08:12;100837.53;;;2.29;76.14
61136;BME280;47021;51.340;12.432;2023-03-03T05:10:44;100837.28;;;2.35;75.42
61136;BME280;47021;51.340;12.432;2023-03-03T05:13:10;100841.16;;;2.23;75.46
61136;BME280;47021;51.340;12.432;2023-03-03T05:15:38;100849.13;;;2.40;75.49
61136;BME280;47021;51.340;12.432;2023-03-03T05:18:05;100846.84;;;2.54;74.29
61136;BME280;47021;51.340;12.432;2023-03-03T05:20:38;100856.19;;;1.89;76.82
61136;BME280;47021;51.340;12.432;2023-03-03T05:23:17;100853.94;;;2.26;76.29
61136;BME280;47021;51.340;12.432;2023-03-03T05:26:01;100853.84;;;2.94;74.09
61136;BME280;47021;51.340;12.432;2023-03-03T05:28:58;100858.66;;;2.81;72.93
61136;BME280;47021;51.340;12.432;2023-03-03T05:31:30;100858.41;;;2.44;73.65
61136;BME280;47021;51.340;12.432;2023-03-03T05:33:55;100854.69;;;3.16;72.30
61136;BME280;47021;51.340;12.432;2023-03-03T05:36:37;100850.88;;;3.45;70.70
61136;BME280;47021;51.340;12.432;2023-03-03T05:39:02;100856.16;;;3.22;71.43
61136;BME280;47021;51.340;12.432;2023-03-03T05:41:29;100848.69;;;2.29;73.72
61136;BME280;47021;51.340;12.432;2023-03-03T05:43:58;100852.91;;;2.75;73.63
61136;BME280;47021;51.340;12.432;2023-03-03T05:46:26;100846.38;;;2.66;73.79
61136;BME280;47021;51.340;12.432;2023-03-03T05:49:05;100844.38;;;2.95;72.26
61136;BME280;47021;51.340;12.432;2023-03-03T05:51:41;100838.16;;;3.20;71.81
61136;BME280;47021;51.340;12.432;2023-03-03T05:54:07;100826.00;;;3.63;70.38
61136;BME280;47021;51.340;12.432;2023-03-03T05:59:16;100851.81;;;2.80;72.23
61136;BME280;47021;51.340;12.432;2023-03-03T06:01:49;100846.31;;;2.23;74.07
61136;BME280;47021;51.340;12.432;2023-03-03T06:04:21;100846.06;;;2.96;72.71
61136;BME280;47021;51.340;12.432;2023-03-03T06:06:46;100851.38;;;2.03;74.55
61136;BME280;47021;51.340;12.432;2023-03-03T06:09:14;100848.69;;;2.06;74.98
61136;BME280;47021;51.340;12.432;2023-03-03T06:11:52;100861.66;;;2.71;73.60
61136;BME280;47021;51.340;12.432;2023-03-03T06:17:02;100871.28;;;2.66;73.27
61136;BME280;47021;51.340;12.432;2023-03-03T06:22:17;100869.41;;;2.26;74.56
61136;BME280;47021;51.340;12.432;2023-03-03T06:24:50;100875.31;;;2.73;73.11
61136;BME280;47021;51.340;12.432;2023-03-03T06:30:01;100886.81;;;2.43;74.95
61136;BME280;47021;51.340;12.432;2023-03-03T06:32:36;100885.69;;;2.71;73.09
61136;BME280;47021;51.340;12.432;2023-03-03T06:35:01;100879.41;;;2.78;72.90
61136;BME280;47021;51.340;12.432;2023-03-03T18:09:49;100836.56;;;5.40;64.46
61136;BME280;47021;51.340;12.432;2023-03-03T18:31:46;100822.13;;;6.95;59.85
61136;BME280;47021;51.340;12.432;2023-03-03T18:42:41;100824.75;;;6.79;60.28
61136;BME280;47021;51.340;12.432;2023-03-03T18:50:36;100832.16;;;7.01;59.52
61136;BME280;47021;51.340;12.432;2023-03-03T18:53:21;100826.22;;;6.99;59.50
61136;BME280;47021;51.340;12.432;2023-03-03T18:55:56;100819.81;;;6.75;59.97
61136;BME280;47021;51.340;12.432;2023-03-03T18:58:43;100828.38;;;6.61;60.55
61136;BME280;47021;51.340;12.432;2023-03-03T19:06:53;100829.59;;;6.85;60.22
61136;BME280;47021;51.340;12.432;2023-03-03T19:12:00;100830.94;;;6.77;60.53
61136;BME280;47021;51.340;12.432;2023-03-03T19:17:43;100834.53;;;6.74;61.03
61136;BME280;47021;51.340;12.432;2023-03-03T19:23:19;100839.75;;;6.59;61.49
61136;BME280;47021;51.340;12.432;2023-03-03T19:25:45;100834.81;;;6.70;60.79
61136;BME280;47021;51.340;12.432;2023-03-03T19:30:54;100839.63;;;6.91;60.42
61136;BME280;47021;51.340;12.432;2023-03-03T19:46:55;100823.81;;;6.96;59.82
61136;BME280;47021;51.340;12.432;2023-03-03T20:00:51;100814.31;;;6.65;60.59
61136;BME280;47021;51.340;12.432;2023-03-03T20:13:54;100822.09;;;6.34;61.19
61136;BME280;47021;51.340;12.432;2023-03-03T20:38:07;100821.00;;;6.22;61.44
61136;BME280;47021;51.340;12.432;2023-03-03T21:02:43;100824.13;;;5.63;63.69
61136;BME280;47021;51.340;12.432;2023-03-03T21:05:18;100817.78;;;5.86;63.16
61136;BME280;47021;51.340;12.432;2023-03-03T21:08:00;100819.53;;;5.86;63.07
61136;BME280;47021;51.340;12.432;2023-03-03T21:10:31;100824.16;;;5.96;62.75
61136;BME280;47021;51.340;12.432;2023-03-03T21:21:14;100817.06;;;6.15;62.02
61136;BME280;47021;51.340;12.432;2023-03-03T21:23:40;100818.84;;;6.46;61.36
61136;BME280;47021;51.340;12.432;2023-03-03T21:26:06;100814.66;;;6.59;60.38
61136;BME280;47021;51.340;12.432;2023-03-03T21:31:22;100806.84;;;6.12;61.90
61136;BME280;47021;51.340;12.432;2023-03-03T21:33:52;100814.97;;;5.91;62.64
61136;BME280;47021;51.340;12.432;2023-03-03T21:36:20;100803.22;;;5.84;62.87
61136;BME280;47021;51.340;12.432;2023-03-03T21:38:48;100807.16;;;5.58;63.05
61136;BME280;47021;51.340;12.432;2023-03-03T21:41:21;100810.59;;;5.41;64.10
61136;BME280;47021;51.340;12.432;2023-03-03T21:57:37;100798.19;;;4.79;65.77
61136;BME280;47021;51.340;12.432;2023-03-03T22:08:35;100786.88;;;4.99;64.89
61136;BME280;47021;51.340;12.432;2023-03-03T22:11:12;100795.09;;;4.90;65.44
61136;BME280;47021;51.340;12.432;2023-03-03T22:14:13;100781.69;;;4.99;64.95
61136;BME280;47021;51.340;12.432;2023-03-03T22:16:48;100783.28;;;4.67;65.68
61136;BME280;47021;51.340;12.432;2023-03-03T22:19:48;100785.72;;;4.52;66.21
61136;BME280;47021;51.340;12.432;2023-03-03T22:22:13;100781.75;;;4.80;66.18
61136;BME280;47021;51.340;12.432;2023-03-03T22:30:13;100786.97;;;4.62;67.10
61136;BME280;47021;51.340;12.432;2023-03-03T22:35:34;100778.19;;;5.00;66.06
61136;BME280;47021;51.340;12.432;2023-03-03T22:38:02;100776.13;;;5.07;65.92
61136;BME280;47021;51.340;12.432;2023-03-03T22:45:52;100770.00;;;5.42;64.55
61136;BME280;47021;51.340;12.432;2023-03-03T22:48:19;100770.34;;;5.19;65.12
61136;BME280;47021;51.340;12.432;2023-03-03T22:50:50;100767.38;;;4.92;65.60
61136;BME280;47021;51.340;12.432;2023-03-03T22:53:21;100764.41;;;5.34;64.47
61136;BME280;47021;51.340;12.432;2023-03-03T22:55:54;100753.97;;;5.68;63.75
61136;BME280;47021;51.340;12.432;2023-03-03T22:58:21;100759.50;;;5.45;63.50
61136;BME280;47021;51.340;12.432;2023-03-03T23:00:54;100751.19;;;5.71;62.89
61136;BME280;47021;51.340;12.432;2023-03-03T23:03:25;100747.44;;;5.61;63.12
61136;BME280;47021;51.340;12.432;2023-03-03T23:05:50;100749.31;;;5.57;63.25
61136;BME280;47021;51.340;12.432;2023-03-03T23:08:16;100740.13;;;5.52;63.36
61136;BME280;47021;51.340;12.432;2023-03-03T23:10:41;100740.91;;;5.37;63.59
61136;BME280;47021;51.340;12.432;2023-03-03T23:13:07;100740.72;;;5.57;63.38
61136;BME280;47021;51.340;12.432;2023-03-03T23:15:35;100738.31;;;5.54;63.68
61136;BME280;47021;51.340;12.432;2023-03-03T23:18:01;100726.75;;;5.44;63.39
61136;BME280;47021;51.340;12.432;2023-03-03T23:20:27;100725.00;;;5.27;64.03
61136;BME280;47021;51.340;12.432;2023-03-03T23:22:53;100726.94;;;5.07;64.48
61136;BME280;47021;51.340;12.432;2023-03-03T23:25:18;100726.88;;;5.08;64.39
61136;BME280;47021;51.340;12.432;2023-03-03T23:27:43;100723.09;;;5.15;64.21
61136;BME280;47021;51.340;12.432;2023-03-03T23:30:23;100720.72;;;4.93;64.77
61136;BME280;47021;51.340;12.432;2023-03-03T23:32:48;100714.84;;;5.24;64.21
61136;BME280;47021;51.340;12.432;2023-03-03T23:35:21;100715.84;;;5.22;64.47
61136;BME280;47021;51.340;12.432;2023-03-03T23:40:21;100716.72;;;4.88;65.09
61136;BME280;47021;51.340;12.432;2023-03-03T23:42:46;100713.09;;;4.90;65.92
61136;BME280;47021;51.340;12.432;2023-03-03T23:45:18;100701.69;;;5.44;63.89
61136;BME280;47021;51.340;12.432;2023-03-03T23:47:49;100707.34;;;5.35;63.79
61136;BME280;47021;51.340;12.432;2023-03-03T23:50:15;100699.97;;;4.95;65.70
61136;BME280;47021;51.340;12.432;2023-03-03T23:52:46;100701.56;;;5.30;64.50
61136;BME280;47021;51.340;12.432;2023-03-03T23:55:12;100691.69;;;5.69;63.04
61136;BME280;47021;51.340;12.432;2023-03-03T23:57:45;100691.47;;;5.41;64.10
